createdAt,value
2023-04-02T00:01:36.900Z,99727.87267864036
2023-04-02T00:04:37.414Z,99731.7774211421
2023-04-02T00:07:39.949Z,99726.0741851482
2023-04-02T00:10:37.479Z,99725.1162086166
2023-04-02T00:13:37.047Z,99731.17959258605
2023-04-02T00:16:34.630Z,99723.1922614224
2023-04-02T00:19:36.175Z,99729.8252588241
2023-04-02T00:22:33.741Z,99727.12027322936
2023-04-02T00:25:35.428Z,99727.58986451612
2023-04-02T00:28:30.839Z,99734.27522338771
2023-04-02T00:31:27.492Z,99734.76933420953
2023-04-02T00:34:27.973Z,99740.33715998744
2023-04-02T00:37:27.527Z,99739.99553487707
2023-04-02T00:40:26.052Z,99736.0672314683
2023-04-02T00:43:24.594Z,99735.26352941745
2023-04-02T00:46:30.191Z,99740.30219346611
2023-04-02T00:49:34.625Z,99736.32906705707
2023-04-02T00:52:35.214Z,99737.1613234047
2023-04-02T00:55:37.224Z,99737.62659763666
2023-04-02T00:58:40.944Z,99747.49104426804
2023-04-02T01:01:44.870Z,99746.21633155679
2023-04-02T01:04:53.892Z,99741.03731878992
2023-04-02T01:07:56.925Z,99751.15027211772
2023-04-02T01:11:02.438Z,99746.15785782663
2023-04-02T01:14:04.983Z,99742.75418911673
2023-04-02T01:17:18.566Z,99746.15785782663
2023-04-02T01:20:38.983Z,99745.69661370027
2023-04-02T01:23:42.539Z,99742.93439376933
2023-04-02T01:26:48.084Z,99744.0724938965
2023-04-02T01:29:48.619Z,99749.38080150286
2023-04-02T01:32:47.258Z,99747.75596457515
2023-04-02T01:35:46.777Z,99745.73642129463
2023-04-02T01:38:47.240Z,99744.81824353222
2023-04-02T01:41:47.876Z,99748.10950751402
2023-04-02T01:44:47.386Z,99744.19691888214
2023-04-02T01:47:44.951Z,99741.43552832902
2023-04-02T01:50:49.506Z,99737.12035253776
2023-04-02T01:53:47.066Z,99731.64431503556
2023-04-02T01:56:43.604Z,99729.25485588291
2023-04-02T01:59:44.135Z,99732.6099124573
2023-04-02T02:02:46.804Z,99730.44466456176
2023-04-02T02:05:46.452Z,99732.0765739276
2023-04-02T02:08:50.777Z,99737.75798794381
2023-04-02T02:11:49.337Z,99737.81115178468
2023-04-02T02:14:47.876Z,99741.43810173468
2023-04-02T02:17:49.552Z,99738.96137699274
2023-04-02T02:20:47.009Z,99742.07548376873
2023-04-02T02:23:43.545Z,99739.77275458125
2023-04-02T02:26:40.114Z,99735.2256621034
2023-04-02T02:29:44.646Z,99736.35217003612
2023-04-02T02:32:45.226Z,99735.43658225471
2023-04-02T02:35:52.794Z,99731.70023334914
2023-04-02T02:39:03.275Z,99731.07403309834
2023-04-02T02:42:08.798Z,99735.49680147224
2023-04-02T02:45:11.287Z,99733.46589233872
2023-04-02T02:48:11.886Z,99733.49448971025
2023-04-02T02:51:14.520Z,99733.93050910512
2023-04-02T02:54:18.945Z,99743.4736824664
2023-04-02T02:57:19.560Z,99736.39988289606
2023-04-02T03:00:22.380Z,99737.61240853352
2023-04-02T03:03:21.729Z,99745.96187085401
2023-04-02T03:06:22.119Z,99742.99515510166
2023-04-02T03:09:26.665Z,99740.89051460127
2023-04-02T03:12:32.217Z,99736.85606981325
2023-04-02T03:15:36.102Z,99736.55214378855
2023-04-02T03:18:38.321Z,99734.67751187179
2023-04-02T03:21:42.854Z,99736.05364178975
2023-04-02T03:24:49.361Z,99732.87900332159
2023-04-02T03:27:49.943Z,99728.69880777888
2023-04-02T03:30:58.457Z,99734.14696599236
2023-04-02T03:33:58.991Z,99726.22452325959
2023-04-02T03:36:59.576Z,99726.5068960101
2023-04-02T03:40:02.114Z,99730.37275649904
2023-04-02T03:43:06.640Z,99740.04819018423
2023-04-02T03:46:14.226Z,99746.18668761024
2023-04-02T03:49:17.722Z,99754.53181858262
2023-04-02T03:52:23.241Z,99753.25063920862
2023-04-02T03:55:21.820Z,99753.30732045544
2023-04-02T03:58:25.364Z,99759.2934307703
2023-04-02T04:01:26.879Z,99772.15947083855
2023-04-02T04:04:27.500Z,99771.0813156154
2023-04-02T04:07:29.985Z,99770.66523987634
2023-04-02T04:10:27.562Z,99776.14236671172
2023-04-02T04:13:29.512Z,99778.35720963764
2023-04-02T04:16:30.717Z,99782.58082573315
2023-04-02T04:19:39.138Z,99778.60220059182
2023-04-02T04:22:41.714Z,99782.23353277933
2023-04-02T04:25:40.309Z,99782.87013041155
2023-04-02T04:28:43.798Z,99787.57464041818
2023-04-02T04:31:54.382Z,99791.11080651826
2023-04-02T04:34:55.919Z,99796.44294991156
2023-04-02T04:37:59.417Z,99807.38468386319
2023-04-02T04:40:59.964Z,99810.92075789852
2023-04-02T04:44:06.501Z,99815.22197383137
2023-04-02T04:47:08.144Z,99810.75327961682
2023-04-02T04:50:08.554Z,99815.56801385613
2023-04-02T04:53:07.149Z,99814.74815441502
2023-04-02T04:56:18.675Z,99821.0888599327
2023-04-02T04:59:15.202Z,99818.30493246682
2023-04-02T05:02:17.764Z,99817.2329249677
2023-04-02T05:05:18.448Z,99824.09632757721
2023-04-02T05:08:20.859Z,99824.39803679175
2023-04-02T05:11:23.372Z,99829.13907161735
2023-04-02T05:14:26.951Z,99827.27691935921
2023-04-02T05:17:28.540Z,99830.69993170048
2023-04-02T05:20:32.039Z,99826.18736691869
2023-04-02T05:23:34.582Z,99819.11539522037
2023-04-02T05:26:39.064Z,99814.11180840542
2023-04-02T05:29:42.644Z,99817.81367475526
2023-04-02T05:32:44.273Z,99816.99668783938
2023-04-02T05:35:49.794Z,99811.51308966248
2023-04-02T05:38:52.282Z,99819.15917110875
2023-04-02T05:42:00.167Z,99824.55067014655
2023-04-02T05:45:04.368Z,99825.73913887082
2023-04-02T05:48:03.938Z,99833.73034768116
2023-04-02T05:51:04.472Z,99838.86232995799
2023-04-02T05:54:06.003Z,99836.30112754658
2023-04-02T05:57:09.622Z,99845.13054555937
2023-04-02T06:00:15.079Z,99842.35798539402
2023-04-02T06:03:17.775Z,99846.83973198367
2023-04-02T06:06:19.160Z,99848.02523193619
2023-04-02T06:09:22.733Z,99859.10764285746
2023-04-02T06:12:27.267Z,99853.7728350951
2023-04-02T06:15:23.801Z,99852.9956917796
2023-04-02T06:18:24.274Z,99859.37500324297
2023-04-02T06:21:21.917Z,99859.84861643176
2023-04-02T06:24:24.557Z,99869.04300058432
2023-04-02T06:27:26.028Z,99865.2627785033
2023-04-02T06:30:26.578Z,99873.66065347346
2023-04-02T06:33:23.124Z,99873.17364468203
2023-04-02T06:36:23.711Z,99880.07936616505
2023-04-02T06:39:22.255Z,99885.95065737402
2023-04-02T06:42:21.801Z,99883.90783771034
2023-04-02T06:45:21.307Z,99880.8450654139
2023-04-02T06:48:20.881Z,99884.21179369705
2023-04-02T06:51:21.403Z,99890.07700724121
2023-04-02T06:54:19.980Z,99886.36248341484
2023-04-02T06:57:17.537Z,99886.37136695116
2023-04-02T07:00:22.075Z,99891.64995104983
2023-04-02T07:03:22.581Z,99895.01745482456
2023-04-02T07:06:21.192Z,99894.56113398726
2023-04-02T07:09:16.727Z,99899.79249804009
2023-04-02T07:12:13.269Z,99907.45198196896
2023-04-02T07:15:10.805Z,99911.85138888667
2023-04-02T07:18:06.439Z,99912.01523555972
2023-04-02T07:21:03.970Z,99910.65693147454
2023-04-02T07:23:59.527Z,99922.30085953997
2023-04-02T07:26:57.102Z,99926.03172796445
2023-04-02T07:29:52.672Z,99923.50393474117
2023-04-02T07:32:49.262Z,99927.36089794544
2023-04-02T07:35:46.781Z,99931.13310988052
2023-04-02T07:38:42.299Z,99934.98041226351
2023-04-02T07:41:43.850Z,99937.6392862478
2023-04-02T07:44:39.452Z,99944.16565154222
2023-04-02T07:47:35.438Z,99945.29490665505
2023-04-02T07:50:30.592Z,99953.33662500417
2023-04-02T07:53:29.284Z,99956.95056950158
2023-04-02T07:56:25.657Z,99945.26644767613
2023-04-02T07:59:21.252Z,99950.74165604965
2023-04-02T08:02:19.838Z,99960.28157793835
2023-04-02T08:05:15.354Z,99963.6950821911
2023-04-02T08:08:10.885Z,99961.04517596465
2023-04-02T08:11:07.462Z,99976.1437420766
2023-04-02T08:14:03.025Z,99974.9795896849
2023-04-02T08:16:59.704Z,99977.54910160588
2023-04-02T08:19:56.182Z,99974.97549505482
2023-04-02T08:22:51.697Z,99972.75262251888
2023-04-02T08:25:47.235Z,99977.21709402381
2023-04-02T08:28:42.828Z,99988.57284232398
2023-04-02T08:31:40.379Z,99983.19460427813
2023-04-02T08:34:35.958Z,99983.43959465303
2023-04-02T08:40:42.026Z,99983.81517704132
2023-04-02T08:43:56.528Z,99983.28152242664
2023-04-02T08:47:01.091Z,99993.12429470406
2023-04-02T08:50:02.597Z,99997.85734652364
2023-04-02T08:53:03.201Z,100000.11652510162
2023-04-02T08:56:08.708Z,100008.56028342694
2023-04-02T08:59:17.259Z,100002.0685529876
2023-04-02T09:02:25.823Z,100010.41644866297
2023-04-02T09:05:26.278Z,100009.08003648366
2023-04-02T09:08:24.834Z,100008.72805247044
2023-04-02T09:11:24.394Z,100007.54698376001
2023-04-02T09:14:26.964Z,100004.66838588902
2023-04-02T09:17:25.571Z,100007.12728413743
2023-04-02T09:20:26.065Z,100007.41820741603
2023-04-02T09:23:24.622Z,100005.26551958962
2023-04-02T09:26:25.141Z,100008.35841718706
2023-04-02T09:29:28.697Z,100012.71418709587
2023-04-02T09:32:37.298Z,100014.1641577619
2023-04-02T09:35:44.873Z,100015.25696621656
2023-04-02T09:38:51.318Z,100012.81883340926
2023-04-02T09:42:02.914Z,100006.89582260397
2023-04-02T09:45:00.367Z,100001.79070453698
2023-04-02T09:47:58.964Z,100003.43751896708
2023-04-02T09:51:02.476Z,100011.31039192749
2023-04-02T09:54:06.019Z,100007.48520003985
2023-04-02T09:57:04.627Z,100007.13968815892
2023-04-02T10:00:14.598Z,100007.64453728951
2023-04-02T10:03:17.655Z,100012.88994111677
2023-04-02T10:06:16.194Z,100014.74514950963
2023-04-02T10:09:20.746Z,100007.87173863173
2023-04-02T10:12:16.284Z,100007.5545760926
2023-04-02T10:15:16.863Z,100009.28769008954
2023-04-02T10:18:15.497Z,100010.74023796718
2023-04-02T10:21:16.039Z,100007.19143411212
2023-04-02T10:24:13.500Z,100006.90562973765
2023-04-02T10:27:23.014Z,100000.76670995589
2023-04-02T10:30:28.604Z,100005.76875774053
2023-04-02T10:33:32.116Z,100001.29482713732
2023-04-02T10:36:38.668Z,100005.62047480802
2023-04-02T10:39:41.165Z,100006.19541114167
2023-04-02T10:42:45.677Z,100009.42700061353
2023-04-02T10:49:06.842Z,100007.08807628765
2023-04-02T10:52:13.292Z,100010.863892276
2023-04-02T10:55:16.856Z,100006.14982360191
2023-04-02T10:58:19.422Z,100005.57833442307
2023-04-02T11:01:20.951Z,100003.30426307277
2023-04-02T11:04:21.452Z,100012.8284989149
2023-04-02T11:07:21.027Z,99997.79861425256
2023-04-02T11:10:19.556Z,99997.57197323511
2023-04-02T11:13:22.175Z,99999.417246662
2023-04-02T11:16:18.715Z,99996.25204447226
2023-04-02T11:19:21.270Z,99989.070870492
2023-04-02T11:22:20.807Z,99988.52173284978
2023-04-02T11:25:21.364Z,99990.28750720089
2023-04-02T11:28:26.884Z,99988.6715337336
2023-04-02T11:31:22.449Z,99984.63837691509
2023-04-02T11:34:28.967Z,99979.94647413451
2023-04-02T11:37:33.510Z,99981.89377461842
2023-04-02T11:40:41.089Z,99979.02564245531
2023-04-02T11:43:49.584Z,99978.40394856846
2023-04-02T11:46:51.274Z,99986.82444661326
2023-04-02T11:50:00.643Z,99985.60259834597
2023-04-02T11:53:00.207Z,99989.44619985536
2023-04-02T11:56:06.710Z,99988.30272904335
2023-04-02T11:59:14.236Z,99986.74028294864
2023-04-02T12:02:20.796Z,99984.75278567162
2023-04-02T12:05:27.375Z,99974.99159911808
2023-04-02T12:08:54.340Z,99971.64983804943
2023-04-02T12:11:42.449Z,99969.90058411735
2023-04-02T12:14:46.015Z,99963.8709462363
2023-04-02T12:17:50.504Z,99968.47094796576
2023-04-02T12:20:53.035Z,99955.55021609101
2023-04-02T12:23:53.580Z,99957.00136986909
2023-04-02T12:27:15.073Z,99971.69123662614
2023-04-02T12:30:12.591Z,99964.0991791614
2023-04-02T12:33:13.203Z,99957.31894374383
2023-04-02T12:36:13.745Z,99959.00368614246
2023-04-02T12:39:17.254Z,99949.47401385558
2023-04-02T12:42:17.821Z,99955.9941241463
2023-04-02T12:45:23.329Z,99951.5472320522
2023-04-02T12:51:28.424Z,99952.18628309356
2023-04-02T12:54:24.235Z,99946.9417665449
2023-04-02T12:57:23.644Z,99948.3821177051
2023-04-02T13:00:29.042Z,99955.1574151386
2023-04-02T13:03:29.661Z,99939.98123837067
2023-04-02T13:06:27.171Z,99936.25183335404
2023-04-02T13:09:28.748Z,99943.27867125785
2023-04-02T13:12:26.300Z,99946.08194461651
2023-04-02T13:15:28.187Z,99937.86764230044
2023-04-02T13:18:30.399Z,99937.8404010745
2023-04-02T13:21:30.971Z,99946.01200450199
2023-04-02T13:24:27.499Z,99948.18495840342
2023-04-02T13:27:26.046Z,99945.46688753771
2023-04-02T13:30:24.622Z,99942.40488618077
2023-04-02T13:33:20.122Z,99950.64419717199
2023-04-02T13:36:15.793Z,99938.31659804049
2023-04-02T13:39:12.293Z,99936.43199851472
2023-04-02T13:42:11.837Z,99935.36551173254
2023-04-02T13:45:16.361Z,99941.44647781507
2023-04-02T13:48:13.921Z,99938.19274092626
2023-04-02T13:51:12.252Z,99938.62950387427
2023-04-02T13:54:14.067Z,99925.15261584621
2023-04-02T13:57:11.655Z,99930.07678087444
2023-04-02T14:00:08.156Z,99936.38888258353
2023-04-02T14:03:06.782Z,99936.74004448105
2023-04-02T14:06:11.225Z,99934.92989166659
2023-04-02T14:09:18.752Z,99934.85515956616
2023-04-02T14:12:22.333Z,99930.97697099528
2023-04-02T14:15:29.821Z,99940.54789242458
2023-04-02T14:18:41.345Z,99937.64030381759
2023-04-02T14:21:49.949Z,99947.77798556151
2023-04-02T14:24:53.464Z,99950.5743011954
2023-04-02T14:28:00.960Z,99953.62437349439
2023-04-02T14:31:02.581Z,99961.25113127119
2023-04-02T14:34:09.094Z,99956.54261623738
2023-04-02T14:37:17.568Z,99949.95789380753
2023-04-02T14:40:22.142Z,99957.80926671207
2023-04-02T14:43:24.732Z,99953.70801134456
2023-04-02T14:46:31.229Z,99965.91588127032
2023-04-02T14:49:31.757Z,99970.53444099113
2023-04-02T14:52:33.287Z,99968.3579619256
2023-04-02T14:55:37.844Z,99977.3883105942
2023-04-02T14:58:37.337Z,99987.45919472749
2023-04-02T15:01:37.975Z,99991.08096230056
2023-04-02T15:07:49.995Z,99996.54969429741
2023-04-02T15:10:55.569Z,99992.93650163033
2023-04-02T15:14:01.057Z,100004.02848932319
2023-04-02T15:16:58.639Z,100004.88156444169
2023-04-02T15:19:59.280Z,100006.08642815382
2023-04-02T15:23:04.719Z,99999.66062358272
2023-04-02T15:26:12.221Z,100003.19152596872
2023-04-02T15:29:28.200Z,99990.65918472572
2023-04-02T15:32:24.305Z,99996.51622680515
2023-04-02T15:35:26.852Z,99995.5984513273
2023-04-02T15:38:33.392Z,99997.58491538894
2023-04-02T15:41:36.893Z,100000.79495958549
2023-04-02T15:44:42.487Z,99998.63557001806
2023-04-02T15:47:46.058Z,99998.04092048512
2023-04-02T15:50:54.596Z,100010.60789158521
2023-04-02T15:54:03.052Z,100005.27193371404
2023-04-02T15:57:11.726Z,100007.44712191432
2023-04-02T16:00:23.106Z,100011.42462683511
2023-04-02T16:03:38.698Z,100014.29830818459
2023-04-02T16:06:56.108Z,100014.71741657586
2023-04-02T16:10:00.686Z,100017.59197407721
2023-04-02T16:12:57.238Z,100021.38732145107
2023-04-02T16:16:01.788Z,100025.29585559167
2023-04-02T16:19:16.137Z,100029.70181233814
2023-04-02T16:22:14.871Z,100035.8656976509
2023-04-02T16:25:16.477Z,100040.44879341214
2023-04-02T16:28:18.928Z,100041.9184858992
2023-04-02T16:31:24.545Z,100043.03427055173
2023-04-02T16:34:33.998Z,100038.92942197742
2023-04-02T16:37:39.537Z,100044.59071291164
2023-04-02T16:40:45.135Z,100044.26411039589
2023-04-02T16:43:53.597Z,100047.18419120507
2023-04-02T16:46:58.189Z,100051.29780434576
2023-04-02T16:50:01.691Z,100059.76851263177
2023-04-02T16:53:10.179Z,100056.2165547147
2023-04-02T16:56:20.745Z,100060.5166052078
2023-04-02T16:59:27.272Z,100058.76307771023
2023-04-02T17:02:36.899Z,100064.90575465863
2023-04-02T17:05:44.435Z,100064.34091573222
2023-04-02T17:08:49.849Z,100068.43983111293
2023-04-02T17:11:53.641Z,100065.06935055011
2023-04-02T17:14:56.919Z,100069.74244334361
2023-04-02T17:18:00.601Z,100080.63888469142
2023-04-02T17:21:08.118Z,100076.80113516198
2023-04-02T17:24:17.547Z,100084.1837171256
2023-04-02T17:27:25.065Z,100090.80382000413
2023-04-02T17:30:35.808Z,100094.33561388985
2023-04-02T17:33:45.139Z,100096.46864668746
2023-04-02T17:36:58.623Z,100089.9273074727
2023-04-02T17:40:17.090Z,100090.58239437455
2023-04-02T17:43:25.633Z,100083.70204864925
2023-04-02T17:46:34.236Z,100080.61040564948
2023-04-02T17:48:36.903Z,100084.47265663427
2023-04-02T17:51:46.388Z,100093.60240643869
2023-04-02T17:54:57.938Z,100097.4270496173
2023-04-02T17:58:18.420Z,100104.34624250355
2023-04-02T18:01:25.048Z,100108.90794421396
2023-04-02T18:04:38.486Z,100137.2479857398
2023-04-02T18:07:46.020Z,100142.63555213969
2023-04-02T18:10:54.786Z,100146.47569285668
2023-04-02T18:14:11.071Z,100145.90757272574
2023-04-02T18:17:23.644Z,100151.61579303542
2023-04-02T18:20:31.147Z,100156.46588002276
2023-04-02T18:23:42.621Z,100157.15634989527
2023-04-02T18:26:49.200Z,100177.02560876762
2023-04-02T18:30:04.674Z,100183.16045655709
2023-04-02T18:33:22.234Z,100185.97676047348
2023-04-02T18:36:33.714Z,100194.3706228594
2023-04-02T18:39:48.906Z,100195.90945883193
2023-04-02T18:43:06.584Z,100191.80681486026
2023-04-02T18:46:13.289Z,100193.85895055544
2023-04-02T18:49:27.823Z,100191.34428837764
2023-04-02T18:52:30.318Z,100185.72526142278
2023-04-02T18:55:37.860Z,100191.20445828844
2023-04-02T18:58:50.389Z,100194.7839390473
2023-04-02T19:01:57.854Z,100191.20445828844
2023-04-02T19:05:02.437Z,100188.62467422136
2023-04-02T19:08:10.976Z,100188.92585558801
2023-04-02T19:11:20.239Z,100191.66316555758
2023-04-02T19:14:31.035Z,100197.90408922365
2023-04-02T19:17:37.578Z,100203.34921643932
2023-04-02T19:20:50.074Z,100210.29315195157
2023-04-02T19:24:11.963Z,100209.98357051863
2023-04-02T19:27:17.116Z,100220.86953455821
2023-04-02T19:30:28.655Z,100217.48133162082
2023-04-02T19:33:45.759Z,100219.98237392472
2023-04-02T19:37:06.523Z,100232.98659183424
2023-04-02T19:40:21.362Z,100231.47783091891
2023-04-02T19:43:26.671Z,100238.49486494239
2023-04-02T19:46:29.828Z,100235.39709673022
2023-04-02T19:49:42.807Z,100228.64292219093
2023-04-02T19:52:52.853Z,100234.80098187468
2023-04-02T19:56:11.646Z,100230.29078373755
2023-04-02T19:59:21.302Z,100227.84077353908
2023-04-02T20:02:24.686Z,100225.32371924631
2023-04-02T20:05:26.399Z,100224.3982100654
2023-04-02T20:08:35.680Z,100219.39874670803
2023-04-02T20:11:38.467Z,100218.57176362856
2023-04-02T20:14:34.047Z,100217.35493155426
2023-04-02T20:17:34.604Z,100221.95491482009
2023-04-02T20:20:40.156Z,100226.5481401676
2023-04-02T20:23:36.662Z,100230.75773797678
2023-04-02T20:26:37.216Z,100230.26149597157
2023-04-02T20:29:33.803Z,100236.53159658972
2023-04-02T20:32:38.478Z,100229.61080106716
2023-04-02T20:35:49.896Z,100231.50340144508
2023-04-02T20:38:45.436Z,100234.27903515004
2023-04-02T20:42:02.918Z,100235.6064417525
2023-04-02T20:45:16.116Z,100243.55131394208
2023-04-02T20:48:21.973Z,100243.5253083398
2023-04-02T20:51:30.909Z,100249.32782459269
2023-04-02T20:54:36.013Z,100253.52259809642
2023-04-02T20:57:42.545Z,100249.8594463871
2023-04-02T21:00:49.492Z,100257.91691631041
2023-04-02T21:03:58.052Z,100259.92347196299
2023-04-02T21:07:09.192Z,100260.06782706606
2023-04-02T21:10:09.689Z,100259.67963505854
2023-04-02T21:13:23.446Z,100262.39369441917
2023-04-02T21:16:24.766Z,100268.52328380883
2023-04-02T21:19:36.870Z,100265.25613579452
2023-04-02T21:22:36.823Z,100268.89070311647
2023-04-02T21:25:47.122Z,100271.77132764028
2023-04-02T21:28:47.882Z,100276.90525720628
2023-04-02T21:31:44.489Z,100276.25456280993
2023-04-02T21:34:41.042Z,100271.03933526327
2023-04-02T21:37:37.991Z,100272.65712081132
2023-04-02T21:40:40.107Z,100272.21530313602
2023-04-02T21:43:45.653Z,100277.48616893316
2023-04-02T21:46:47.604Z,100274.9603669891
2023-04-02T21:49:50.746Z,100271.45068004896
2023-04-02T21:52:46.311Z,100271.74539138551
2023-04-02T21:55:46.833Z,100268.26194272003
2023-04-02T21:58:48.404Z,100271.66019559874
2023-04-02T22:01:55.052Z,100282.78502046294
2023-04-02T22:05:06.427Z,100288.3601741717
2023-04-02T22:08:07.058Z,100297.27545697933
2023-04-02T22:11:09.543Z,100294.52602670246
2023-04-02T22:14:06.105Z,100290.10542978127
2023-04-02T22:17:06.686Z,100294.73078114739
2023-04-02T22:20:16.306Z,100299.88354970334
2023-04-02T22:23:25.681Z,100307.7477993239
2023-04-02T22:26:33.238Z,100307.61272977728
2023-04-02T22:29:34.621Z,100314.43675302214
2023-04-02T22:32:36.415Z,100317.23135886101
2023-04-02T22:35:31.923Z,100320.40550807769
2023-04-02T22:38:36.430Z,100323.33339133188
2023-04-02T22:41:36.988Z,100318.02278639747
2023-04-02T22:44:36.501Z,100326.46866068368
2023-04-02T22:47:37.096Z,100332.07529315025
2023-04-02T22:50:42.249Z,100335.64709122867
2023-04-02T22:53:38.168Z,100344.62040463711
2023-04-02T22:56:48.692Z,100339.0357811041
2023-04-02T22:59:44.234Z,100343.7339693487
2023-04-02T23:02:39.864Z,100352.19337636617
2023-04-02T23:05:36.381Z,100358.36054737793
2023-04-02T23:08:42.948Z,100353.13021149953
2023-04-02T23:11:58.332Z,100365.17728370804
2023-04-02T23:15:01.990Z,100363.32207543855
2023-04-02T23:18:02.506Z,100357.74032902093
2023-04-02T23:20:58.127Z,100367.44428249338
2023-04-02T23:23:54.648Z,100366.0775846464
2023-04-02T23:26:51.185Z,100361.78596683464
2023-04-02T23:29:46.758Z,100355.17997515955
2023-04-02T23:32:42.377Z,100355.71677471213
2023-04-02T23:35:37.917Z,100356.7420245598
2023-04-02T23:38:35.425Z,100352.89904222307
2023-04-02T23:41:35.031Z,100353.10698915186
2023-04-02T23:44:32.598Z,100354.50568516104
2023-04-02T23:47:28.157Z,100352.61309765538
2023-04-02T23:50:23.633Z,100353.53465860427
2023-04-02T23:53:19.223Z,100363.30824465232
2023-04-02T23:56:14.785Z,100359.61173314502
2023-04-02T23:59:10.380Z,100368.69124704888
